createdAt,value
2024-04-07T20:34:02.158Z,19.01
2024-04-07T20:36:05.942Z,18.79
2024-04-07T20:38:12.113Z,18.75
2024-04-07T20:40:14.073Z,19.00
2024-04-07T20:42:20.265Z,19.09
2024-04-07T20:44:23.670Z,19.08
2024-04-07T20:46:28.897Z,19.03
2024-04-07T20:48:31.051Z,18.86
2024-04-07T20:50:38.690Z,19.05
2024-04-07T20:52:42.423Z,18.93
2024-04-07T20:54:44.469Z,18.88
2024-04-07T20:56:49.074Z,18.53
2024-04-07T20:58:53.575Z,18.79
2024-04-07T21:00:58.957Z,18.80
2024-04-07T21:03:03.165Z,18.75
2024-04-07T21:05:06.072Z,18.77
2024-04-07T21:07:16.218Z,18.69
2024-04-07T21:09:19.902Z,18.77
2024-04-07T21:11:25.017Z,18.74
2024-04-07T21:13:34.229Z,18.72
2024-04-07T21:15:40.148Z,18.73
2024-04-07T21:17:42.486Z,18.77
2024-04-07T21:19:47.186Z,18.24
2024-04-07T21:21:49.150Z,18.63
2024-04-07T21:23:58.589Z,18.64
2024-04-07T21:26:02.008Z,18.70
2024-04-07T21:28:07.752Z,18.74
2024-04-07T21:30:11.120Z,18.74
2024-04-07T21:32:17.701Z,18.73
2024-04-07T21:34:21.921Z,18.69
2024-04-07T21:36:30.399Z,18.58
2024-04-07T21:38:34.030Z,18.58
2024-04-07T21:40:41.534Z,18.57
2024-04-07T21:42:48.180Z,18.48
2024-04-07T21:44:53.821Z,18.36
2024-04-07T21:46:56.123Z,18.48
2024-04-07T21:49:01.940Z,18.30
2024-04-07T21:51:04.537Z,18.30
2024-04-07T21:53:21.730Z,18.47
2024-04-07T21:55:23.905Z,18.28
2024-04-07T21:57:31.379Z,18.41
2024-04-07T21:59:33.305Z,18.42
2024-04-07T22:01:37.888Z,18.11
2024-04-07T22:03:40.036Z,18.23
2024-04-07T22:05:45.833Z,18.32
2024-04-07T22:07:49.228Z,18.21
2024-04-07T22:09:54.160Z,17.96
2024-04-07T22:11:56.674Z,18.24
2024-04-07T22:14:08.387Z,18.22
2024-04-07T22:16:10.285Z,18.09
2024-04-07T22:18:19.325Z,18.22
2024-04-07T22:20:31.136Z,18.07
2024-04-07T22:22:35.801Z,18.22
2024-04-07T22:24:39.082Z,18.25
2024-04-07T22:26:43.674Z,18.16
2024-04-07T22:28:47.186Z,18.13
2024-04-07T22:31:01.764Z,18.15
2024-04-07T22:33:03.959Z,18.25
2024-04-07T22:35:08.871Z,18.27
2024-04-07T22:37:10.750Z,18.21
2024-04-07T22:39:16.843Z,18.24
2024-04-07T22:41:18.926Z,18.20
2024-04-07T22:43:23.696Z,17.82
2024-04-07T22:45:25.649Z,18.00
2024-04-07T22:47:33.243Z,18.10
2024-04-07T22:49:36.736Z,18.01
2024-04-07T22:51:41.399Z,18.13
2024-04-07T22:53:44.191Z,18.14
2024-04-07T22:55:49.501Z,17.99
2024-04-07T22:57:53.660Z,18.09
2024-04-07T22:59:59.543Z,18.05
2024-04-07T23:02:02.882Z,17.97
2024-04-07T23:04:23.330Z,17.90
2024-04-07T23:06:25.430Z,17.98
2024-04-07T23:08:35.318Z,17.97
2024-04-07T23:10:37.487Z,17.86
2024-04-07T23:12:42.546Z,17.87
2024-04-07T23:14:49.461Z,17.83
2024-04-07T23:16:58.058Z,17.38
2024-04-07T23:18:59.991Z,17.67
2024-04-07T23:21:14.787Z,17.68
2024-04-07T23:23:16.729Z,17.67
2024-04-07T23:25:21.854Z,17.72
2024-04-07T23:27:25.459Z,17.33
2024-04-07T23:29:27.527Z,17.78
2024-04-07T23:31:40.026Z,17.71
2024-04-07T23:33:44.765Z,17.60
2024-04-07T23:36:09.990Z,17.53
2024-04-07T23:38:17.117Z,17.64
2024-04-07T23:40:23.175Z,17.72
2024-04-07T23:42:28.894Z,17.67
2024-04-07T23:44:33.649Z,17.65
2024-04-07T23:46:35.737Z,17.54
2024-04-07T23:48:40.707Z,17.68
2024-04-07T23:50:42.920Z,17.66
2024-04-07T23:52:47.648Z,17.60
2024-04-07T23:54:53.639Z,17.49
2024-04-07T23:56:58.875Z,17.56
2024-04-07T23:59:02.779Z,17.41
